sensor_id;sensor_type;location;lat;lon;timestamp;pressure;altitude;pressure_sealevel;temperature;humidity
73024;BME280;61199;47.526;8.538;2023-06-04T00:02:14;96312.41;;;21.30;48.77
73024;BME280;61199;47.526;8.538;2023-06-04T00:04:41;96311.16;;;21.26;48.89
73024;BME280;61199;47.526;8.538;2023-06-04T00:07:08;96311.00;;;21.47;48.17
73024;BME280;61199;47.526;8.538;2023-06-04T00:09:34;96304.44;;;21.63;47.72
73024;BME280;61199;47.526;8.538;2023-06-04T00:12:01;96312.69;;;21.74;47.19
73024;BME280;61199;47.526;8.538;2023-06-04T00:14:28;96306.72;;;21.66;47.47
73024;BME280;61199;47.526;8.538;2023-06-04T00:16:54;96307.13;;;21.56;47.70
73024;BME280;61199;47.526;8.538;2023-06-04T00:19:21;96304.22;;;21.51;47.80
73024;BME280;61199;47.526;8.538;2023-06-04T00:21:47;96303.19;;;21.52;47.84
73024;BME280;61199;47.526;8.538;2023-06-04T00:24:14;96304.22;;;21.58;47.77
73024;BME280;61199;47.526;8.538;2023-06-04T00:26:40;96302.22;;;21.66;47.45
73024;BME280;61199;47.526;8.538;2023-06-04T00:29:07;96300.75;;;21.57;47.75
73024;BME280;61199;47.526;8.538;2023-06-04T00:31:33;96301.81;;;21.69;47.83
73024;BME280;61199;47.526;8.538;2023-06-04T00:34:00;96301.59;;;21.71;47.16
73024;BME280;61199;47.526;8.538;2023-06-04T00:36:26;96300.59;;;21.65;47.49
73024;BME280;61199;47.526;8.538;2023-06-04T00:38:52;96300.34;;;21.67;47.66
73024;BME280;61199;47.526;8.538;2023-06-04T00:41:19;96304.03;;;21.59;47.76
73024;BME280;61199;47.526;8.538;2023-06-04T00:43:45;96301.78;;;21.50;48.14
73024;BME280;61199;47.526;8.538;2023-06-04T00:46:23;96300.53;;;21.52;48.23
73024;BME280;61199;47.526;8.538;2023-06-04T00:48:52;96307.31;;;21.61;48.36
73024;BME280;61199;47.526;8.538;2023-06-04T00:51:19;96312.66;;;21.55;48.97
73024;BME280;61199;47.526;8.538;2023-06-04T00:53:48;96311.00;;;21.47;49.42
73024;BME280;61199;47.526;8.538;2023-06-04T00:56:15;96325.75;;;21.43;49.53
73024;BME280;61199;47.526;8.538;2023-06-04T00:58:41;96311.41;;;21.38;49.79
73024;BME280;61199;47.526;8.538;2023-06-04T01:01:17;96312.63;;;21.29;49.85
73024;BME280;61199;47.526;8.538;2023-06-04T01:03:49;96314.47;;;21.28;50.18
73024;BME280;61199;47.526;8.538;2023-06-04T01:06:27;96299.50;;;21.27;49.83
73024;BME280;61199;47.526;8.538;2023-06-04T01:08:55;96310.16;;;21.27;49.78
73024;BME280;61199;47.526;8.538;2023-06-04T01:11:31;96301.75;;;21.24;49.87
73024;BME280;61199;47.526;8.538;2023-06-04T01:13:58;96304.38;;;21.17;49.25
73024;BME280;61199;47.526;8.538;2023-06-04T01:16:26;96308.50;;;21.26;49.50
73024;BME280;61199;47.526;8.538;2023-06-04T01:18:58;96301.94;;;21.22;49.71
73024;BME280;61199;47.526;8.538;2023-06-04T01:21:28;96310.13;;;21.21;49.94
73024;BME280;61199;47.526;8.538;2023-06-04T01:23:59;96317.53;;;21.19;49.52
73024;BME280;61199;47.526;8.538;2023-06-04T01:26:30;96312.38;;;21.05;49.53
73024;BME280;61199;47.526;8.538;2023-06-04T01:28:58;96312.72;;;20.89;50.12
73024;BME280;61199;47.526;8.538;2023-06-04T01:31:26;96315.00;;;20.92;49.94
73024;BME280;61199;47.526;8.538;2023-06-04T01:33:54;96317.50;;;21.00;49.41
73024;BME280;61199;47.526;8.538;2023-06-04T01:36:20;96323.94;;;20.78;50.41
73024;BME280;61199;47.526;8.538;2023-06-04T01:38:47;96323.53;;;20.81;49.46
73024;BME280;61199;47.526;8.538;2023-06-04T01:41:13;96316.25;;;20.96;48.66
73024;BME280;61199;47.526;8.538;2023-06-04T01:43:40;96325.69;;;21.05;48.62
73024;BME280;61199;47.526;8.538;2023-06-04T01:46:06;96324.84;;;20.98;49.33
73024;BME280;61199;47.526;8.538;2023-06-04T01:48:32;96330.59;;;20.95;49.70
73024;BME280;61199;47.526;8.538;2023-06-04T01:50:59;96333.84;;;20.97;49.29
73024;BME280;61199;47.526;8.538;2023-06-04T01:53:26;96331.78;;;20.92;49.17
73024;BME280;61199;47.526;8.538;2023-06-04T01:55:52;96329.78;;;21.01;49.22
73024;BME280;61199;47.526;8.538;2023-06-04T01:58:19;96332.66;;;21.06;48.33
73024;BME280;61199;47.526;8.538;2023-06-04T02:00:49;96330.22;;;21.04;48.25
73024;BME280;61199;47.526;8.538;2023-06-04T02:03:16;96330.16;;;20.91;48.23
73024;BME280;61199;47.526;8.538;2023-06-04T02:05:42;96325.56;;;20.79;48.57
73024;BME280;61199;47.526;8.538;2023-06-04T02:08:12;96329.69;;;20.81;49.10
73024;BME280;61199;47.526;8.538;2023-06-04T02:10:38;96340.16;;;20.83;49.32
73024;BME280;61199;47.526;8.538;2023-06-04T02:13:05;96335.06;;;20.88;49.23
73024;BME280;61199;47.526;8.538;2023-06-04T02:15:32;96344.06;;;20.87;49.25
73024;BME280;61199;47.526;8.538;2023-06-04T02:18:17;96344.91;;;20.87;50.11
73024;BME280;61199;47.526;8.538;2023-06-04T02:20:48;96344.69;;;20.89;50.33
73024;BME280;61199;47.526;8.538;2023-06-04T02:23:16;96343.19;;;20.80;50.94
73024;BME280;61199;47.526;8.538;2023-06-04T02:25:43;96346.50;;;20.82;50.90
73024;BME280;61199;47.526;8.538;2023-06-04T02:28:13;96339.91;;;20.78;50.76
73024;BME280;61199;47.526;8.538;2023-06-04T02:30:39;96344.03;;;20.80;50.71
73024;BME280;61199;47.526;8.538;2023-06-04T02:33:05;96339.88;;;20.65;50.94
73024;BME280;61199;47.526;8.538;2023-06-04T02:35:32;96338.69;;;20.80;50.63
73024;BME280;61199;47.526;8.538;2023-06-04T02:37:59;96339.13;;;20.84;49.66
73024;BME280;61199;47.526;8.538;2023-06-04T02:40:26;96337.09;;;20.86;49.11
73024;BME280;61199;47.526;8.538;2023-06-04T02:42:53;96330.31;;;20.83;48.80
73024;BME280;61199;47.526;8.538;2023-06-04T02:45:20;96340.31;;;20.75;48.91
73024;BME280;61199;47.526;8.538;2023-06-04T02:47:47;96332.53;;;20.80;48.82
73024;BME280;61199;47.526;8.538;2023-06-04T02:50:14;96343.28;;;20.86;48.20
73024;BME280;61199;47.526;8.538;2023-06-04T02:52:41;96337.09;;;20.86;48.36
73024;BME280;61199;47.526;8.538;2023-06-04T02:55:10;96340.75;;;20.85;48.25
73024;BME280;61199;47.526;8.538;2023-06-04T02:57:41;96337.44;;;20.76;48.55
73024;BME280;61199;47.526;8.538;2023-06-04T03:00:12;96340.81;;;20.51;49.28
73024;BME280;61199;47.526;8.538;2023-06-04T03:02:44;96338.56;;;20.48;49.04
73024;BME280;61199;47.526;8.538;2023-06-04T03:05:13;96346.09;;;20.38;49.64
73024;BME280;61199;47.526;8.538;2023-06-04T03:07:41;96350.22;;;20.47;49.42
73024;BME280;61199;47.526;8.538;2023-06-04T03:10:10;96352.91;;;20.53;49.37
73024;BME280;61199;47.526;8.538;2023-06-04T03:12:37;96354.13;;;20.51;49.69
73024;BME280;61199;47.526;8.538;2023-06-04T03:15:04;96341.81;;;20.43;50.05
73024;BME280;61199;47.526;8.538;2023-06-04T03:17:31;96351.06;;;20.54;49.74
73024;BME280;61199;47.526;8.538;2023-06-04T03:19:58;96351.00;;;20.41;49.96
73024;BME280;61199;47.526;8.538;2023-06-04T03:22:25;96354.69;;;20.40;49.65
73024;BME280;61199;47.526;8.538;2023-06-04T03:24:52;96359.75;;;20.35;49.89
73024;BME280;61199;47.526;8.538;2023-06-04T03:27:18;96362.78;;;20.25;49.82
73024;BME280;61199;47.526;8.538;2023-06-04T03:29:45;96359.63;;;20.09;50.04
73024;BME280;61199;47.526;8.538;2023-06-04T03:32:12;96368.06;;;19.98;50.61
73024;BME280;61199;47.526;8.538;2023-06-04T03:34:39;96371.50;;;20.13;50.05
73024;BME280;61199;47.526;8.538;2023-06-04T03:37:05;96376.84;;;20.19;49.82
73024;BME280;61199;47.526;8.538;2023-06-04T03:39:31;96365.63;;;20.24;49.89
73024;BME280;61199;47.526;8.538;2023-06-04T03:41:58;96383.44;;;20.23;49.63
73024;BME280;61199;47.526;8.538;2023-06-04T03:44:24;96376.53;;;20.29;49.17
73024;BME280;61199;47.526;8.538;2023-06-04T03:46:51;96379.81;;;20.31;49.09
73024;BME280;61199;47.526;8.538;2023-06-04T03:49:18;96378.06;;;20.17;49.52
73024;BME280;61199;47.526;8.538;2023-06-04T03:51:45;96385.91;;;20.25;49.68
73024;BME280;61199;47.526;8.538;2023-06-04T03:54:12;96392.81;;;20.19;49.51
73024;BME280;61199;47.526;8.538;2023-06-04T03:56:44;96389.22;;;20.27;49.35
73024;BME280;61199;47.526;8.538;2023-06-04T03:59:11;96395.34;;;20.27;49.46
73024;BME280;61199;47.526;8.538;2023-06-04T04:01:38;96385.31;;;20.29;49.40
73024;BME280;61199;47.526;8.538;2023-06-04T04:04:05;96386.16;;;20.30;49.43
73024;BME280;61199;47.526;8.538;2023-06-04T04:06:32;96395.34;;;20.27;50.05
73024;BME280;61199;47.526;8.538;2023-06-04T04:08:58;96394.75;;;20.32;49.74
73024;BME280;61199;47.526;8.538;2023-06-04T04:11:25;96387.13;;;20.22;49.64
73024;BME280;61199;47.526;8.538;2023-06-04T04:13:51;96395.59;;;20.05;50.08
73024;BME280;61199;47.526;8.538;2023-06-04T04:16:18;96403.66;;;19.97;50.13
73024;BME280;61199;47.526;8.538;2023-06-04T04:18:44;96391.78;;;19.93;50.23
73024;BME280;61199;47.526;8.538;2023-06-04T04:21:11;96397.97;;;20.00;50.29
73024;BME280;61199;47.526;8.538;2023-06-04T04:23:39;96398.69;;;20.08;49.86
73024;BME280;61199;47.526;8.538;2023-06-04T04:26:08;96398.50;;;20.10;49.87
73024;BME280;61199;47.526;8.538;2023-06-04T04:28:36;96399.63;;;20.01;50.24
73024;BME280;61199;47.526;8.538;2023-06-04T04:31:03;96396.03;;;20.08;49.77
73024;BME280;61199;47.526;8.538;2023-06-04T04:33:29;96400.44;;;20.01;50.03
73024;BME280;61199;47.526;8.538;2023-06-04T04:35:59;96399.31;;;20.10;49.84
73024;BME280;61199;47.526;8.538;2023-06-04T04:38:26;96413.81;;;20.08;49.96
73024;BME280;61199;47.526;8.538;2023-06-04T04:40:54;96411.00;;;20.16;49.66
73024;BME280;61199;47.526;8.538;2023-06-04T04:43:33;96403.28;;;20.21;49.64
73024;BME280;61199;47.526;8.538;2023-06-04T04:46:00;96411.13;;;20.29;49.70
73024;BME280;61199;47.526;8.538;2023-06-04T04:48:27;96408.47;;;20.29;49.72
73024;BME280;61199;47.526;8.538;2023-06-04T04:50:54;96412.75;;;20.30;49.94
73024;BME280;61199;47.526;8.538;2023-06-04T04:53:20;96417.94;;;20.38;50.08
73024;BME280;61199;47.526;8.538;2023-06-04T04:55:47;96420.97;;;20.35;50.19
73024;BME280;61199;47.526;8.538;2023-06-04T04:58:14;96418.47;;;20.27;50.32
73024;BME280;61199;47.526;8.538;2023-06-04T05:00:40;96420.34;;;20.33;50.34
73024;BME280;61199;47.526;8.538;2023-06-04T05:03:07;96413.75;;;20.22;50.38
73024;BME280;61199;47.526;8.538;2023-06-04T05:05:34;96422.53;;;20.02;50.75
73024;BME280;61199;47.526;8.538;2023-06-04T05:08:00;96428.66;;;20.02;51.13
73024;BME280;61199;47.526;8.538;2023-06-04T05:10:26;96420.91;;;20.01;49.67
73024;BME280;61199;47.526;8.538;2023-06-04T05:12:54;96428.56;;;19.89;50.25
73024;BME280;61199;47.526;8.538;2023-06-04T05:15:21;96434.19;;;19.80;50.28
73024;BME280;61199;47.526;8.538;2023-06-04T05:17:48;96434.97;;;19.74;50.04
73024;BME280;61199;47.526;8.538;2023-06-04T05:20:15;96431.25;;;19.68;50.50
73024;BME280;61199;47.526;8.538;2023-06-04T05:22:42;96430.69;;;19.73;50.79
73024;BME280;61199;47.526;8.538;2023-06-04T05:25:09;96440.44;;;19.93;50.61
73024;BME280;61199;47.526;8.538;2023-06-04T05:27:36;96433.63;;;19.84;50.77
73024;BME280;61199;47.526;8.538;2023-06-04T05:30:06;96436.19;;;19.99;50.56
73024;BME280;61199;47.526;8.538;2023-06-04T05:32:33;96441.69;;;20.12;50.10
73024;BME280;61199;47.526;8.538;2023-06-04T05:34:59;96442.78;;;20.24;49.87
73024;BME280;61199;47.526;8.538;2023-06-04T05:37:26;96450.63;;;20.32;49.68
73024;BME280;61199;47.526;8.538;2023-06-04T05:39:56;96440.25;;;20.16;50.26
73024;BME280;61199;47.526;8.538;2023-06-04T05:42:23;96450.47;;;20.12;50.53
73024;BME280;61199;47.526;8.538;2023-06-04T05:44:50;96450.09;;;20.15;50.61
73024;BME280;61199;47.526;8.538;2023-06-04T05:47:16;96448.31;;;20.22;50.34
73024;BME280;61199;47.526;8.538;2023-06-04T05:49:43;96444.00;;;20.21;50.19
73024;BME280;61199;47.526;8.538;2023-06-04T05:52:09;96449.13;;;20.23;50.15
73024;BME280;61199;47.526;8.538;2023-06-04T05:54:42;96454.25;;;20.24;49.93
73024;BME280;61199;47.526;8.538;2023-06-04T05:57:08;96445.09;;;20.27;50.18
73024;BME280;61199;47.526;8.538;2023-06-04T05:59:35;96453.47;;;20.30;49.82
73024;BME280;61199;47.526;8.538;2023-06-04T06:02:01;96462.69;;;20.28;50.55
73024;BME280;61199;47.526;8.538;2023-06-04T06:04:28;96457.84;;;20.38;49.18
73024;BME280;61199;47.526;8.538;2023-06-04T06:06:55;96459.50;;;20.39;49.08
73024;BME280;61199;47.526;8.538;2023-06-04T06:09:22;96462.47;;;20.29;48.86
73024;BME280;61199;47.526;8.538;2023-06-04T06:11:48;96465.72;;;20.25;48.91
73024;BME280;61199;47.526;8.538;2023-06-04T06:14:15;96457.09;;;20.23;48.98
73024;BME280;61199;47.526;8.538;2023-06-04T06:16:41;96467.00;;;20.29;48.92
73024;BME280;61199;47.526;8.538;2023-06-04T06:19:08;96462.56;;;20.36;48.63
73024;BME280;61199;47.526;8.538;2023-06-04T06:21:34;96465.00;;;20.37;48.72
73024;BME280;61199;47.526;8.538;2023-06-04T06:24:00;96470.13;;;20.39;49.00
73024;BME280;61199;47.526;8.538;2023-06-04T06:26:27;96465.44;;;20.41;48.71
73024;BME280;61199;47.526;8.538;2023-06-04T06:28:53;96478.88;;;20.33;49.02
73024;BME280;61199;47.526;8.538;2023-06-04T06:31:20;96472.69;;;20.26;49.30
73024;BME280;61199;47.526;8.538;2023-06-04T06:33:46;96474.44;;;20.40;48.70
73024;BME280;61199;47.526;8.538;2023-06-04T06:36:13;96476.47;;;20.38;48.63
73024;BME280;61199;47.526;8.538;2023-06-04T06:38:39;96480.38;;;20.14;49.27
73024;BME280;61199;47.526;8.538;2023-06-04T06:41:07;96477.91;;;20.13;49.76
73024;BME280;61199;47.526;8.538;2023-06-04T06:43:34;96483.66;;;20.16;49.88
73024;BME280;61199;47.526;8.538;2023-06-04T06:46:01;96482.06;;;20.01;50.29
73024;BME280;61199;47.526;8.538;2023-06-04T06:48:27;96488.09;;;20.09;50.38
73024;BME280;61199;47.526;8.538;2023-06-04T06:50:54;96487.84;;;20.25;50.09
73024;BME280;61199;47.526;8.538;2023-06-04T06:53:21;96492.22;;;20.12;50.24
73024;BME280;61199;47.526;8.538;2023-06-04T06:55:47;96483.63;;;20.10;50.13
73024;BME280;61199;47.526;8.538;2023-06-04T06:58:14;96493.88;;;20.13;50.45
73024;BME280;61199;47.526;8.538;2023-06-04T07:00:41;96487.94;;;20.38;50.38
73024;BME280;61199;47.526;8.538;2023-06-04T07:03:07;96481.13;;;20.57;50.02
73024;BME280;61199;47.526;8.538;2023-06-04T07:05:34;96485.44;;;20.58;50.36
73024;BME280;61199;47.526;8.538;2023-06-04T07:08:01;96486.09;;;20.39;50.69
73024;BME280;61199;47.526;8.538;2023-06-04T07:10:29;96484.31;;;20.46;50.57
73024;BME280;61199;47.526;8.538;2023-06-04T07:12:56;96483.16;;;20.55;50.01
73024;BME280;61199;47.526;8.538;2023-06-04T07:15:22;96485.97;;;20.47;50.16
73024;BME280;61199;47.526;8.538;2023-06-04T07:17:48;96484.25;;;20.39;50.21
73024;BME280;61199;47.526;8.538;2023-06-04T07:20:16;96482.38;;;20.33;50.43
73024;BME280;61199;47.526;8.538;2023-06-04T07:22:42;96473.25;;;20.21;51.31
73024;BME280;61199;47.526;8.538;2023-06-04T07:25:09;96482.59;;;20.38;50.95
73024;BME280;61199;47.526;8.538;2023-06-04T07:27:35;96484.16;;;20.54;50.41
73024;BME280;61199;47.526;8.538;2023-06-04T07:30:02;96484.97;;;20.54;50.55
73024;BME280;61199;47.526;8.538;2023-06-04T07:32:28;96486.41;;;20.50;50.77
73024;BME280;61199;47.526;8.538;2023-06-04T07:34:55;96487.16;;;20.44;51.05
73024;BME280;61199;47.526;8.538;2023-06-04T07:37:21;96485.75;;;20.48;51.41
73024;BME280;61199;47.526;8.538;2023-06-04T07:39:47;96491.81;;;20.63;50.94
73024;BME280;61199;47.526;8.538;2023-06-04T07:42:14;96489.47;;;20.26;51.67
73024;BME280;61199;47.526;8.538;2023-06-04T07:44:40;96483.22;;;20.13;52.42
73024;BME280;61199;47.526;8.538;2023-06-04T07:47:07;96481.97;;;20.09;52.56
73024;BME280;61199;47.526;8.538;2023-06-04T07:49:33;96485.66;;;19.93;52.73
73024;BME280;61199;47.526;8.538;2023-06-04T07:52:00;96475.22;;;19.92;53.37
73024;BME280;61199;47.526;8.538;2023-06-04T07:54:26;96475.34;;;19.84;53.66
73024;BME280;61199;47.526;8.538;2023-06-04T07:56:53;96480.34;;;19.72;53.97
73024;BME280;61199;47.526;8.538;2023-06-04T07:59:22;96474.53;;;19.83;53.71
73024;BME280;61199;47.526;8.538;2023-06-04T08:01:50;96479.91;;;19.90;53.27
73024;BME280;61199;47.526;8.538;2023-06-04T08:04:17;96484.59;;;19.88;53.23
73024;BME280;61199;47.526;8.538;2023-06-04T08:06:44;96477.63;;;19.87;53.24
73024;BME280;61199;47.526;8.538;2023-06-04T08:09:11;96475.47;;;19.76;53.53
73024;BME280;61199;47.526;8.538;2023-06-04T08:11:40;96483.91;;;19.79;53.68
73024;BME280;61199;47.526;8.538;2023-06-04T08:14:07;96479.03;;;19.83;53.59
73024;BME280;61199;47.526;8.538;2023-06-04T08:16:33;96482.81;;;19.95;53.04
73024;BME280;61199;47.526;8.538;2023-06-04T08:18:59;96481.13;;;20.08;53.06
73024;BME280;61199;47.526;8.538;2023-06-04T08:21:27;96479.69;;;20.27;52.75
73024;BME280;61199;47.526;8.538;2023-06-04T08:23:54;96481.88;;;20.23;52.73
73024;BME280;61199;47.526;8.538;2023-06-04T08:26:21;96477.72;;;20.14;53.87
73024;BME280;61199;47.526;8.538;2023-06-04T08:28:48;96480.00;;;20.17;52.89
73024;BME280;61199;47.526;8.538;2023-06-04T08:31:15;96486.94;;;20.18;53.24
73024;BME280;61199;47.526;8.538;2023-06-04T08:33:45;96480.00;;;20.17;53.31
73024;BME280;61199;47.526;8.538;2023-06-04T08:36:12;96484.56;;;20.23;53.38
73024;BME280;61199;47.526;8.538;2023-06-04T08:38:38;96486.28;;;20.37;52.43
73024;BME280;61199;47.526;8.538;2023-06-04T08:41:13;96489.06;;;20.50;51.97
73024;BME280;61199;47.526;8.538;2023-06-04T08:43:42;96487.66;;;20.54;52.28
73024;BME280;61199;47.526;8.538;2023-06-04T08:46:11;96480.25;;;20.50;52.67
73024;BME280;61199;47.526;8.538;2023-06-04T08:48:38;96484.72;;;20.49;52.85
73024;BME280;61199;47.526;8.538;2023-06-04T08:51:06;96494.28;;;20.65;52.48
73024;BME280;61199;47.526;8.538;2023-06-04T08:53:36;96493.81;;;20.55;52.73
73024;BME280;61199;47.526;8.538;2023-06-04T08:56:03;96491.16;;;20.34;53.44
73024;BME280;61199;47.526;8.538;2023-06-04T08:58:31;96489.03;;;20.23;53.71
73024;BME280;61199;47.526;8.538;2023-06-04T09:01:00;96492.88;;;20.41;53.31
73024;BME280;61199;47.526;8.538;2023-06-04T09:03:28;96490.66;;;20.45;52.94
73024;BME280;61199;47.526;8.538;2023-06-04T09:05:57;96491.06;;;20.48;52.98
73024;BME280;61199;47.526;8.538;2023-06-04T09:08:24;96497.84;;;20.51;52.97
73024;BME280;61199;47.526;8.538;2023-06-04T09:10:53;96499.13;;;20.55;52.88
73024;BME280;61199;47.526;8.538;2023-06-04T09:13:22;96492.00;;;20.62;52.89
73024;BME280;61199;47.526;8.538;2023-06-04T09:15:59;96499.59;;;20.65;52.79
73024;BME280;61199;47.526;8.538;2023-06-04T09:18:26;96491.88;;;20.76;52.00
73024;BME280;61199;47.526;8.538;2023-06-04T09:21:06;96488.53;;;20.61;52.93
73024;BME280;61199;47.526;8.538;2023-06-04T09:23:44;96492.13;;;20.54;53.32
73024;BME280;61199;47.526;8.538;2023-06-04T09:26:11;96493.25;;;20.66;53.38
73024;BME280;61199;47.526;8.538;2023-06-04T09:28:41;96488.16;;;20.71;53.35
73024;BME280;61199;47.526;8.538;2023-06-04T09:31:09;96492.31;;;20.80;53.58
73024;BME280;61199;47.526;8.538;2023-06-04T09:33:48;96491.00;;;20.97;52.83
73024;BME280;61199;47.526;8.538;2023-06-04T09:36:16;96490.47;;;21.08;52.49
73024;BME280;61199;47.526;8.538;2023-06-04T09:38:43;96484.66;;;20.98;52.37
73024;BME280;61199;47.526;8.538;2023-06-04T09:41:13;96490.41;;;20.95;52.67
73024;BME280;61199;47.526;8.538;2023-06-04T09:43:40;96493.66;;;20.90;52.67
73024;BME280;61199;47.526;8.538;2023-06-04T09:46:10;96487.16;;;21.06;52.47
73024;BME280;61199;47.526;8.538;2023-06-04T09:48:37;96488.50;;;21.22;52.28
73024;BME280;61199;47.526;8.538;2023-06-04T09:51:13;96481.09;;;21.18;52.30
73024;BME280;61199;47.526;8.538;2023-06-04T09:53:41;96485.66;;;21.30;53.00
73024;BME280;61199;47.526;8.538;2023-06-04T09:56:07;96479.72;;;21.35;51.71
73024;BME280;61199;47.526;8.538;2023-06-04T09:58:35;96479.75;;;21.48;51.44
73024;BME280;61199;47.526;8.538;2023-06-04T10:01:03;96479.81;;;21.54;51.22
73024;BME280;61199;47.526;8.538;2023-06-04T10:03:33;96471.88;;;21.67;50.95
73024;BME280;61199;47.526;8.538;2023-06-04T10:06:03;96473.03;;;21.58;51.12
73024;BME280;61199;47.526;8.538;2023-06-04T10:08:30;96475.97;;;21.70;50.83
73024;BME280;61199;47.526;8.538;2023-06-04T10:11:01;96479.03;;;21.67;50.90
73024;BME280;61199;47.526;8.538;2023-06-04T10:13:42;96481.69;;;21.67;51.33
73024;BME280;61199;47.526;8.538;2023-06-04T10:16:12;96479.44;;;21.70;51.24
73024;BME280;61199;47.526;8.538;2023-06-04T10:18:52;96476.41;;;21.86;50.30
73024;BME280;61199;47.526;8.538;2023-06-04T10:21:21;96478.06;;;21.94;49.92
73024;BME280;61199;47.526;8.538;2023-06-04T10:23:50;96470.28;;;22.12;49.84
73024;BME280;61199;47.526;8.538;2023-06-04T10:26:16;96468.03;;;22.28;49.13
73024;BME280;61199;47.526;8.538;2023-06-04T10:28:43;96462.09;;;22.33;49.93
73024;BME280;61199;47.526;8.538;2023-06-04T10:31:10;96456.94;;;22.31;49.66
73024;BME280;61199;47.526;8.538;2023-06-04T10:33:38;96459.44;;;22.33;49.83
73024;BME280;61199;47.526;8.538;2023-06-04T10:36:17;96457.97;;;22.11;49.89
73024;BME280;61199;47.526;8.538;2023-06-04T10:38:46;96453.44;;;21.98;50.45
73024;BME280;61199;47.526;8.538;2023-06-04T10:41:14;96460.44;;;22.25;49.99
73024;BME280;61199;47.526;8.538;2023-06-04T10:43:46;96461.25;;;22.13;49.96
73024;BME280;61199;47.526;8.538;2023-06-04T10:46:18;96460.66;;;22.24;49.39
73024;BME280;61199;47.526;8.538;2023-06-04T10:48:48;96456.53;;;22.15;50.09
73024;BME280;61199;47.526;8.538;2023-06-04T10:51:32;96462.28;;;22.44;49.70
73024;BME280;61199;47.526;8.538;2023-06-04T10:54:01;96458.81;;;22.50;49.79
73024;BME280;61199;47.526;8.538;2023-06-04T10:56:32;96454.28;;;22.64;49.63
73024;BME280;61199;47.526;8.538;2023-06-04T10:59:01;96452.19;;;22.72;48.75
73024;BME280;61199;47.526;8.538;2023-06-04T11:01:38;96447.28;;;22.69;49.23
73024;BME280;61199;47.526;8.538;2023-06-04T11:04:05;96441.50;;;22.85;49.58
73024;BME280;61199;47.526;8.538;2023-06-04T11:06:32;96439.44;;;22.81;48.60
73024;BME280;61199;47.526;8.538;2023-06-04T11:09:05;96439.81;;;22.97;47.74
73024;BME280;61199;47.526;8.538;2023-06-04T11:11:32;96438.59;;;22.93;47.87
73024;BME280;61199;47.526;8.538;2023-06-04T11:14:11;96442.53;;;22.84;47.13
73024;BME280;61199;47.526;8.538;2023-06-04T11:16:42;96445.75;;;22.99;47.59
73024;BME280;61199;47.526;8.538;2023-06-04T11:19:08;96438.16;;;22.96;47.05
73024;BME280;61199;47.526;8.538;2023-06-04T11:21:35;96447.59;;;23.05;46.90
73024;BME280;61199;47.526;8.538;2023-06-04T11:24:05;96447.53;;;23.31;46.95
73024;BME280;61199;47.526;8.538;2023-06-04T11:26:33;96444.00;;;23.37;46.34
73024;BME280;61199;47.526;8.538;2023-06-04T11:29:06;96436.66;;;23.20;45.50
73024;BME280;61199;47.526;8.538;2023-06-04T11:31:48;96437.00;;;23.36;44.35
73024;BME280;61199;47.526;8.538;2023-06-04T11:34:25;96429.81;;;23.74;44.99
73024;BME280;61199;47.526;8.538;2023-06-04T11:36:52;96433.63;;;23.91;44.22
73024;BME280;61199;47.526;8.538;2023-06-04T11:39:19;96431.00;;;24.16;42.24
73024;BME280;61199;47.526;8.538;2023-06-04T11:41:46;96421.59;;;24.07;42.47
73024;BME280;61199;47.526;8.538;2023-06-04T11:44:13;96424.19;;;24.13;41.93
73024;BME280;61199;47.526;8.538;2023-06-04T11:46:43;96422.50;;;24.43;42.19
73024;BME280;61199;47.526;8.538;2023-06-04T11:49:15;96421.72;;;24.36;41.08
73024;BME280;61199;47.526;8.538;2023-06-04T11:52:00;96421.25;;;24.45;40.28
73024;BME280;61199;47.526;8.538;2023-06-04T11:54:26;96422.66;;;24.48;39.61
73024;BME280;61199;47.526;8.538;2023-06-04T11:56:53;96410.59;;;24.39;39.54
73024;BME280;61199;47.526;8.538;2023-06-04T11:59:19;96407.78;;;24.52;39.41
73024;BME280;61199;47.526;8.538;2023-06-04T12:01:46;96398.38;;;24.67;39.96
73024;BME280;61199;47.526;8.538;2023-06-04T12:04:14;96403.34;;;24.64;39.14
73024;BME280;61199;47.526;8.538;2023-06-04T12:06:54;96390.50;;;24.72;38.19
73024;BME280;61199;47.526;8.538;2023-06-04T12:09:23;96397.78;;;24.83;37.78
73024;BME280;61199;47.526;8.538;2023-06-04T12:11:50;96395.41;;;24.75;37.29
73024;BME280;61199;47.526;8.538;2023-06-04T12:14:23;96394.31;;;24.83;36.99
73024;BME280;61199;47.526;8.538;2023-06-04T12:16:55;96394.81;;;24.91;37.28
73024;BME280;61199;47.526;8.538;2023-06-04T12:19:21;96393.84;;;25.04;37.29
73024;BME280;61199;47.526;8.538;2023-06-04T12:21:59;96388.47;;;25.04;37.10
73024;BME280;61199;47.526;8.538;2023-06-04T12:24:28;96397.13;;;25.24;36.89
73024;BME280;61199;47.526;8.538;2023-06-04T12:27:05;96385.25;;;25.31;36.22
73024;BME280;61199;47.526;8.538;2023-06-04T12:29:33;96384.53;;;25.24;36.82
73024;BME280;61199;47.526;8.538;2023-06-04T12:32:06;96385.09;;;25.44;36.38
73024;BME280;61199;47.526;8.538;2023-06-04T12:34:41;96384.09;;;25.57;35.73
73024;BME280;61199;47.526;8.538;2023-06-04T12:37:08;96389.31;;;25.52;35.36
73024;BME280;61199;47.526;8.538;2023-06-04T12:39:35;96380.91;;;25.48;35.46
73024;BME280;61199;47.526;8.538;2023-06-04T12:42:05;96380.84;;;25.66;36.22
73024;BME280;61199;47.526;8.538;2023-06-04T12:44:32;96389.41;;;25.75;36.55
73024;BME280;61199;47.526;8.538;2023-06-04T12:47:01;96387.63;;;25.69;36.43
73024;BME280;61199;47.526;8.538;2023-06-04T12:49:28;96382.03;;;25.82;35.06
73024;BME280;61199;47.526;8.538;2023-06-04T12:51:54;96391.16;;;25.81;34.66
73024;BME280;61199;47.526;8.538;2023-06-04T12:54:21;96379.06;;;25.90;35.52
73024;BME280;61199;47.526;8.538;2023-06-04T12:56:48;96381.69;;;26.19;35.20
73024;BME280;61199;47.526;8.538;2023-06-04T12:59:14;96377.13;;;26.43;34.37
73024;BME280;61199;47.526;8.538;2023-06-04T13:01:41;96374.47;;;26.43;34.18
73024;BME280;61199;47.526;8.538;2023-06-04T13:04:08;96367.53;;;26.47;33.87
73024;BME280;61199;47.526;8.538;2023-06-04T13:06:36;96372.59;;;26.66;34.10